createdAt,value
2023-02-06T00:00:38.935Z,12.82
2023-02-06T00:01:47.815Z,13.63
2023-02-06T00:02:51.060Z,21.30
2023-02-06T00:03:54.299Z,11.55
2023-02-06T00:04:57.419Z,11.30
2023-02-06T00:06:01.473Z,14.90
2023-02-06T00:07:04.624Z,8.95
2023-02-06T00:08:07.985Z,19.10
2023-02-06T00:09:11.601Z,16.48
2023-02-06T00:10:14.830Z,10.57
2023-02-06T00:11:18.443Z,24.02
2023-02-06T00:12:21.679Z,19.23
2023-02-06T00:13:24.800Z,14.68
2023-02-06T00:14:27.918Z,16.95
2023-02-06T00:15:31.286Z,20.60
2023-02-06T00:16:37.049Z,13.65
2023-02-06T00:17:40.284Z,14.52
2023-02-06T00:18:43.402Z,20.13
2023-02-06T00:19:46.524Z,14.80
2023-02-06T00:20:49.649Z,16.25
2023-02-06T00:21:52.889Z,20.25
2023-02-06T00:22:56.151Z,19.33
2023-02-06T00:24:01.173Z,13.73
2023-02-06T00:25:05.012Z,17.58
2023-02-06T00:26:08.859Z,6.60
2023-02-06T00:27:13.415Z,13.95
2023-02-06T00:28:17.459Z,18.50
2023-02-06T00:29:20.617Z,10.48
2023-02-06T00:30:23.927Z,8.50
2023-02-06T00:31:26.878Z,22.35
2023-02-06T00:32:29.789Z,20.90
2023-02-06T00:33:32.868Z,21.10
2023-02-06T00:34:35.642Z,17.13
2023-02-06T00:35:38.517Z,12.38
2023-02-06T00:36:42.595Z,16.63
2023-02-06T00:37:45.358Z,18.52
2023-02-06T00:38:47.896Z,10.23
2023-02-06T00:39:50.521Z,16.85
2023-02-06T00:40:53.214Z,12.18
2023-02-06T00:41:55.939Z,11.55
2023-02-06T00:42:58.571Z,16.27
2023-02-06T00:44:01.144Z,9.25
2023-02-06T00:45:04.018Z,10.23
2023-02-06T00:46:06.789Z,7.65
2023-02-06T00:47:09.553Z,20.17
2023-02-06T00:48:16.585Z,11.02
2023-02-06T00:49:19.149Z,24.20
2023-02-06T00:50:21.619Z,8.23
2023-02-06T00:51:24.062Z,14.90
2023-02-06T00:52:26.823Z,17.40
2023-02-06T00:53:29.472Z,21.98
2023-02-06T00:54:31.986Z,13.35
2023-02-06T00:55:34.755Z,23.50
2023-02-06T00:56:37.746Z,14.15
2023-02-06T00:57:40.267Z,13.75
2023-02-06T00:58:42.913Z,13.43
2023-02-06T00:59:46.992Z,11.18
2023-02-06T01:00:49.659Z,11.25
2023-02-06T01:01:52.785Z,18.35
2023-02-06T01:02:56.032Z,13.95
2023-02-06T01:03:58.871Z,13.57
2023-02-06T01:05:02.131Z,12.13
2023-02-06T01:06:04.749Z,17.38
2023-02-06T01:07:07.363Z,21.48
2023-02-06T01:08:10.029Z,15.23
2023-02-06T01:09:12.559Z,15.00
2023-02-06T01:10:15.315Z,14.20
2023-02-06T01:11:23.711Z,13.23
2023-02-06T01:12:26.232Z,12.07
2023-02-06T01:13:28.872Z,10.68
2023-02-06T01:14:31.631Z,12.90
2023-02-06T01:15:34.341Z,14.30
2023-02-06T01:16:38.472Z,15.90
2023-02-06T01:17:41.594Z,11.15
2023-02-06T01:18:44.245Z,13.38
2023-02-06T01:19:46.754Z,16.83
2023-02-06T01:20:49.401Z,21.00
2023-02-06T01:21:51.916Z,18.20
2023-02-06T01:22:54.447Z,16.38
2023-02-06T01:23:57.201Z,17.90
2023-02-06T01:24:59.718Z,17.70
2023-02-06T01:26:09.798Z,8.18
2023-02-06T01:27:12.322Z,13.05
2023-02-06T01:28:15.338Z,11.02
2023-02-06T01:29:17.839Z,13.73
2023-02-06T01:30:20.417Z,19.27
2023-02-06T01:31:28.211Z,15.00
2023-02-06T01:32:30.805Z,12.82
2023-02-06T01:33:33.321Z,14.23
2023-02-06T01:34:35.846Z,19.60
2023-02-06T01:35:38.365Z,10.43
2023-02-06T01:36:43.046Z,11.60
2023-02-06T01:37:46.186Z,8.13
2023-02-06T01:38:51.569Z,11.60
2023-02-06T01:39:54.091Z,11.77
2023-02-06T01:41:01.420Z,14.07
2023-02-06T01:42:05.136Z,17.35
2023-02-06T01:43:18.224Z,10.05
2023-02-06T01:44:23.982Z,14.20
2023-02-06T01:45:26.384Z,15.43
2023-02-06T01:46:28.943Z,8.38
2023-02-06T01:47:31.666Z,11.77
2023-02-06T01:48:35.867Z,6.10
2023-02-06T01:49:43.369Z,11.02
2023-02-06T01:50:53.510Z,15.25
2023-02-06T01:53:04.919Z,12.85
2023-02-06T01:54:09.236Z,15.73
2023-02-06T01:55:12.011Z,10.05
2023-02-06T01:56:19.801Z,13.80
2023-02-06T01:57:23.768Z,13.68
2023-02-06T01:58:34.326Z,15.23
2023-02-06T02:00:40.834Z,10.25
2023-02-06T02:01:44.439Z,9.40
2023-02-06T02:02:49.813Z,10.40
2023-02-06T02:03:58.817Z,5.90
2023-02-06T02:05:04.099Z,16.25
2023-02-06T02:06:10.694Z,17.58
2023-02-06T02:07:29.182Z,12.40
2023-02-06T02:08:42.021Z,13.70
2023-02-06T02:09:45.261Z,9.60
2023-02-06T02:10:48.504Z,11.10
2023-02-06T02:11:51.869Z,10.43
2023-02-06T02:12:55.110Z,15.00
2023-02-06T02:13:58.714Z,7.50
2023-02-06T02:15:02.918Z,10.35
2023-02-06T02:16:35.166Z,18.45
2023-02-06T02:17:49.958Z,5.45
2023-02-06T02:19:11.441Z,9.20
2023-02-06T02:20:51.766Z,10.15
2023-02-06T02:22:19.607Z,10.80
2023-02-06T02:23:49.253Z,12.93
2023-02-06T02:25:01.152Z,13.10
2023-02-06T02:26:25.138Z,17.30
2023-02-06T02:27:37.617Z,10.65
2023-02-06T02:29:02.337Z,16.70
2023-02-06T02:30:11.701Z,18.98
2023-02-06T02:31:42.229Z,27.65
2023-02-06T02:32:58.634Z,16.73
2023-02-06T02:34:43.270Z,28.42
2023-02-06T02:35:55.751Z,14.82
2023-02-06T02:37:10.634Z,15.18
2023-02-06T02:38:13.757Z,27.40
2023-02-06T02:40:12.089Z,17.20
2023-02-06T02:41:28.778Z,15.63
2023-02-06T02:42:54.443Z,14.15
2023-02-06T02:44:27.940Z,15.13
2023-02-06T02:45:45.781Z,25.05
2023-02-06T02:46:54.453Z,21.58
2023-02-06T02:48:05.181Z,20.63
2023-02-06T02:50:16.336Z,25.52
2023-02-06T02:51:19.294Z,23.77
2023-02-06T02:52:21.976Z,16.10
2023-02-06T02:53:25.655Z,20.13
2023-02-06T02:54:29.540Z,8.35
2023-02-06T02:55:32.300Z,23.33
2023-02-06T02:56:37.469Z,14.23
2023-02-06T02:57:41.029Z,11.32
2023-02-06T02:58:45.980Z,18.05
2023-02-06T02:59:50.683Z,12.38
2023-02-06T03:00:58.868Z,11.88
2023-02-06T03:02:32.658Z,15.75
2023-02-06T03:03:38.673Z,14.35
2023-02-06T03:04:48.625Z,14.82
2023-02-06T03:06:21.384Z,11.82
2023-02-06T03:07:37.318Z,15.27
2023-02-06T03:09:07.232Z,14.40
2023-02-06T03:10:46.707Z,15.45
2023-02-06T03:12:28.090Z,14.60
2023-02-06T03:13:37.474Z,13.77
2023-02-06T03:14:56.316Z,8.60
2023-02-06T03:16:11.683Z,10.95
2023-02-06T03:17:18.273Z,13.30
2023-02-06T03:18:41.683Z,12.73
2023-02-06T03:19:49.594Z,14.45
2023-02-06T03:20:52.853Z,16.98
2023-02-06T03:21:55.840Z,15.75
2023-02-06T03:23:00.993Z,9.48
2023-02-06T03:24:09.284Z,14.52
2023-02-06T03:25:15.645Z,8.95
2023-02-06T03:26:22.608Z,11.52
2023-02-06T03:27:28.004Z,5.10
2023-02-06T03:28:37.605Z,10.02
2023-02-06T03:29:42.763Z,11.40
2023-02-06T03:30:49.220Z,12.88
2023-02-06T03:31:59.208Z,8.63
2023-02-06T03:33:06.285Z,9.27
2023-02-06T03:34:17.927Z,8.75
2023-02-06T03:35:25.857Z,14.63
2023-02-06T03:36:28.974Z,16.00
2023-02-06T03:37:32.565Z,12.82
2023-02-06T03:38:35.093Z,10.02
2023-02-06T03:39:38.209Z,13.18
2023-02-06T03:40:44.593Z,7.95
2023-02-06T03:41:48.894Z,13.18
2023-02-06T03:42:56.363Z,17.88
2023-02-06T03:44:00.777Z,11.07
2023-02-06T03:45:28.990Z,17.95
2023-02-06T03:46:34.380Z,9.23
2023-02-06T03:47:39.424Z,14.18
2023-02-06T03:48:50.601Z,10.63
2023-02-06T03:49:56.111Z,11.57
2023-02-06T03:51:03.564Z,10.52
2023-02-06T03:52:28.876Z,10.10
2023-02-06T03:53:34.994Z,13.15
2023-02-06T03:54:42.080Z,8.35
2023-02-06T03:55:47.961Z,9.43
2023-02-06T03:56:59.000Z,13.95
2023-02-06T03:58:07.767Z,10.45
2023-02-06T03:59:11.004Z,6.07
2023-02-06T04:00:14.730Z,6.03
2023-02-06T04:01:19.112Z,11.80
2023-02-06T04:02:24.821Z,6.60
2023-02-06T04:03:27.812Z,5.00
2023-02-06T04:04:37.295Z,9.25
2023-02-06T04:05:41.625Z,6.50
2023-02-06T04:06:44.991Z,6.10
2023-02-06T04:07:48.466Z,13.65
2023-02-06T04:08:51.824Z,12.07
2023-02-06T04:09:54.944Z,12.70
2023-02-06T04:10:58.068Z,13.13
2023-02-06T04:12:01.195Z,21.60
2023-02-06T04:13:04.309Z,14.40
2023-02-06T04:14:07.441Z,10.85
2023-02-06T04:15:11.296Z,12.88
2023-02-06T04:16:14.426Z,11.98
2023-02-06T04:17:31.513Z,11.20
2023-02-06T04:18:40.920Z,12.75
2023-02-06T04:19:44.286Z,19.77
2023-02-06T04:20:47.405Z,15.10
2023-02-06T04:21:50.528Z,20.15
2023-02-06T04:22:53.804Z,14.63
2023-02-06T04:23:57.011Z,14.93
2023-02-06T04:25:00.138Z,14.40
2023-02-06T04:26:03.253Z,12.20
2023-02-06T04:27:07.094Z,11.68
2023-02-06T04:28:10.469Z,17.25
2023-02-06T04:29:13.699Z,10.30
2023-02-06T04:30:18.413Z,15.57
2023-02-06T04:31:21.768Z,10.80
2023-02-06T04:32:25.222Z,7.93
2023-02-06T04:33:28.359Z,18.90
2023-02-06T04:34:33.625Z,12.77
2023-02-06T04:35:36.980Z,17.67
2023-02-06T04:36:40.468Z,7.80
2023-02-06T04:37:43.472Z,9.00
2023-02-06T04:38:46.231Z,12.35
2023-02-06T04:39:49.234Z,10.52
2023-02-06T04:40:51.875Z,13.30
2023-02-06T04:41:55.357Z,6.85
2023-02-06T04:42:58.251Z,15.25
2023-02-06T04:44:01.250Z,7.18
2023-02-06T04:45:04.490Z,9.55
2023-02-06T04:46:07.121Z,8.50
2023-02-06T04:47:09.818Z,15.15
2023-02-06T04:48:12.530Z,13.18
2023-02-06T04:49:16.129Z,15.73
2023-02-06T04:50:19.299Z,12.43
2023-02-06T04:51:21.892Z,12.65
2023-02-06T04:52:24.535Z,18.17
2023-02-06T04:53:27.105Z,17.73
2023-02-06T04:54:32.443Z,17.95
2023-02-06T04:55:36.330Z,9.80
2023-02-06T04:56:38.985Z,8.15
2023-02-06T04:57:41.630Z,10.55
2023-02-06T04:58:44.157Z,12.13
2023-02-06T04:59:46.881Z,16.95
2023-02-06T05:00:50.513Z,18.60
2023-02-06T05:01:53.030Z,8.18
2023-02-06T05:02:55.606Z,7.45
2023-02-06T05:03:58.188Z,10.82
2023-02-06T05:05:00.699Z,9.70
2023-02-06T05:06:04.680Z,10.48
2023-02-06T05:07:07.311Z,11.35
2023-02-06T05:08:09.716Z,20.70
2023-02-06T05:09:12.235Z,7.97
2023-02-06T05:10:15.231Z,10.93
2023-02-06T05:11:17.637Z,6.90
2023-02-06T05:12:20.272Z,16.25
2023-02-06T05:13:23.511Z,21.15
2023-02-06T05:14:26.248Z,17.33
2023-02-06T05:15:28.792Z,9.38
2023-02-06T05:16:31.435Z,9.10
2023-02-06T05:17:34.192Z,12.88
2023-02-06T05:18:37.198Z,7.80
2023-02-06T05:19:39.841Z,9.10
2023-02-06T05:20:43.556Z,9.57
2023-02-06T05:21:46.196Z,8.43
2023-02-06T05:22:48.716Z,15.82
2023-02-06T05:23:51.357Z,13.10
2023-02-06T05:24:54.118Z,8.95
2023-02-06T05:25:56.877Z,9.27
2023-02-06T05:26:59.517Z,8.77
2023-02-06T05:28:03.076Z,6.30
2023-02-06T05:29:05.883Z,8.60
2023-02-06T05:30:08.912Z,16.38
2023-02-06T05:31:18.266Z,10.98
2023-02-06T05:32:21.157Z,6.55
2023-02-06T05:33:24.010Z,5.25
2023-02-06T05:34:26.646Z,11.40
2023-02-06T05:35:29.162Z,9.85
2023-02-06T05:36:31.686Z,11.68
2023-02-06T05:37:34.203Z,16.27
2023-02-06T05:38:36.730Z,8.48
2023-02-06T05:39:39.259Z,10.88
2023-02-06T05:40:41.780Z,8.98
2023-02-06T05:41:44.291Z,9.63
2023-02-06T05:42:46.813Z,9.77
2023-02-06T05:43:49.332Z,10.75
2023-02-06T05:44:51.860Z,12.57
2023-02-06T05:45:54.377Z,11.13
2023-02-06T05:46:57.021Z,8.43
2023-02-06T05:47:59.539Z,8.95
2023-02-06T05:49:02.078Z,9.70
2023-02-06T05:50:05.134Z,5.53
2023-02-06T05:51:08.067Z,9.45
2023-02-06T05:52:11.426Z,8.95
2023-02-06T05:53:14.074Z,8.38
2023-02-06T05:54:18.519Z,11.23
2023-02-06T05:55:21.276Z,8.85
2023-02-06T05:56:23.800Z,10.90
2023-02-06T05:57:26.440Z,8.95
2023-02-06T05:58:29.202Z,8.68
2023-02-06T05:59:31.976Z,10.00
2023-02-06T06:00:34.607Z,12.50
2023-02-06T06:01:37.366Z,8.25
2023-02-06T06:02:40.128Z,10.55
2023-02-06T06:03:42.906Z,8.07
2023-02-06T06:04:46.168Z,9.52
2023-02-06T06:05:49.255Z,9.90
2023-02-06T06:06:52.377Z,8.98
2023-02-06T06:07:55.386Z,11.85
2023-02-06T06:09:01.616Z,9.77
2023-02-06T06:10:05.342Z,14.77
2023-02-06T06:11:08.585Z,8.98
2023-02-06T06:12:11.838Z,17.70
2023-02-06T06:13:14.947Z,12.52
2023-02-06T06:14:18.187Z,22.83
2023-02-06T06:15:21.317Z,19.08
2023-02-06T06:16:24.484Z,15.05
2023-02-06T06:17:27.674Z,15.38
2023-02-06T06:18:30.798Z,19.13
2023-02-06T06:19:34.035Z,12.63
2023-02-06T06:20:37.284Z,11.48
2023-02-06T06:21:40.523Z,15.65
2023-02-06T06:22:43.788Z,15.23
2023-02-06T06:23:47.010Z,10.15
2023-02-06T06:24:50.131Z,11.15
2023-02-06T06:25:53.249Z,14.27
2023-02-06T06:26:56.371Z,10.43
2023-02-06T06:27:59.671Z,12.20
2023-02-06T06:29:02.857Z,13.73
2023-02-06T06:30:06.341Z,9.13
2023-02-06T06:31:12.539Z,16.92
2023-02-06T06:32:15.818Z,12.98
2023-02-06T06:33:19.658Z,10.00
2023-02-06T06:34:22.789Z,12.32
2023-02-06T06:35:26.515Z,12.18
2023-02-06T06:36:29.745Z,15.00
2023-02-06T06:37:32.986Z,14.30
2023-02-06T06:38:36.591Z,11.00
2023-02-06T06:39:39.835Z,16.90
2023-02-06T06:40:43.191Z,16.70
2023-02-06T06:41:46.432Z,7.80
2023-02-06T06:42:49.436Z,16.83
2023-02-06T06:43:56.656Z,18.35
2023-02-06T06:44:59.397Z,18.27
2023-02-06T06:46:02.313Z,15.57
2023-02-06T06:47:05.162Z,16.80
2023-02-06T06:48:07.921Z,15.07
2023-02-06T06:49:10.689Z,18.52
2023-02-06T06:50:13.325Z,15.38
2023-02-06T06:51:16.207Z,11.98
2023-02-06T06:52:24.742Z,17.55
2023-02-06T06:53:28.380Z,17.77
2023-02-06T06:54:30.972Z,13.15
2023-02-06T06:55:34.089Z,14.40
2023-02-06T06:56:36.855Z,12.82
2023-02-06T06:57:39.500Z,12.52
2023-02-06T06:58:42.788Z,13.82
2023-02-06T06:59:45.383Z,18.75
2023-02-06T07:00:48.087Z,21.52
2023-02-06T07:01:52.639Z,21.98
2023-02-06T07:02:55.199Z,18.38
2023-02-06T07:03:59.951Z,11.52
2023-02-06T07:05:02.588Z,21.75
2023-02-06T07:06:05.955Z,30.98
2023-02-06T07:07:08.928Z,26.83
2023-02-06T07:08:11.593Z,20.85
2023-02-06T07:09:14.235Z,22.95
2023-02-06T07:10:17.681Z,30.00
2023-02-06T07:11:20.356Z,17.25
2023-02-06T07:12:23.127Z,28.10
2023-02-06T07:13:25.761Z,22.58
2023-02-06T07:14:28.281Z,24.17
2023-02-06T07:15:30.917Z,25.85
2023-02-06T07:16:33.605Z,17.40
2023-02-06T07:17:36.445Z,25.05
2023-02-06T07:18:40.737Z,29.55
2023-02-06T07:19:48.092Z,19.48
2023-02-06T07:20:51.577Z,19.83
2023-02-06T07:21:54.441Z,15.27
2023-02-06T07:22:57.105Z,16.38
2023-02-06T07:23:59.979Z,13.35
2023-02-06T07:25:02.966Z,20.25
2023-02-06T07:26:05.853Z,19.02
2023-02-06T07:27:08.848Z,20.60
2023-02-06T07:28:11.546Z,13.38
2023-02-06T07:29:14.007Z,14.85
2023-02-06T07:30:17.136Z,19.83
2023-02-06T07:31:20.045Z,31.42
2023-02-06T07:32:22.770Z,15.70
2023-02-06T07:33:25.293Z,23.13
2023-02-06T07:34:27.933Z,14.77
2023-02-06T07:35:30.468Z,16.48
2023-02-06T07:36:33.224Z,19.23
2023-02-06T07:37:35.731Z,20.45
2023-02-06T07:38:38.370Z,16.65
2023-02-06T07:39:40.893Z,21.30
2023-02-06T07:40:45.425Z,21.20
2023-02-06T07:41:50.496Z,26.40
2023-02-06T07:42:55.056Z,15.20
2023-02-06T07:44:05.738Z,18.48
2023-02-06T07:45:08.743Z,11.52
2023-02-06T07:46:11.700Z,18.58
2023-02-06T07:47:14.381Z,30.00
2023-02-06T07:48:17.141Z,23.75
2023-02-06T07:49:19.671Z,29.40
2023-02-06T07:50:22.186Z,21.48
2023-02-06T07:51:24.827Z,22.75
2023-02-06T07:52:27.600Z,19.40
2023-02-06T07:53:30.231Z,17.38
2023-02-06T07:54:32.761Z,19.08
2023-02-06T07:55:38.670Z,21.13
2023-02-06T07:56:41.401Z,14.10
2023-02-06T07:57:43.923Z,14.27
2023-02-06T07:58:50.638Z,18.73
2023-02-06T07:59:53.162Z,15.88
2023-02-06T08:00:56.252Z,17.77
2023-02-06T08:01:58.808Z,13.27
2023-02-06T08:03:01.477Z,29.92
2023-02-06T08:04:04.399Z,32.35
2023-02-06T08:05:07.451Z,21.48
2023-02-06T08:06:13.454Z,20.92
2023-02-06T08:07:17.898Z,20.02
2023-02-06T08:08:20.895Z,24.30
2023-02-06T08:09:24.736Z,12.32
2023-02-06T08:10:27.737Z,15.25
2023-02-06T08:11:31.458Z,14.73
2023-02-06T08:12:34.465Z,19.77
2023-02-06T08:13:37.721Z,22.15
2023-02-06T08:14:40.828Z,22.40
2023-02-06T08:15:43.947Z,15.07
2023-02-06T08:16:47.201Z,13.95
2023-02-06T08:17:50.313Z,10.50
2023-02-06T08:18:53.795Z,13.68
2023-02-06T08:19:56.916Z,13.65
2023-02-06T08:21:07.132Z,17.45
2023-02-06T08:22:10.360Z,15.95
2023-02-06T08:23:13.486Z,14.68
2023-02-06T08:24:16.600Z,20.17
2023-02-06T08:25:19.721Z,20.38
2023-02-06T08:26:23.562Z,31.75
2023-02-06T08:27:27.764Z,16.48
2023-02-06T08:28:31.727Z,20.20
2023-02-06T08:29:42.881Z,34.30
2023-02-06T08:30:46.163Z,28.10
2023-02-06T08:31:49.449Z,11.60
2023-02-06T08:32:52.613Z,32.38
2023-02-06T08:33:56.095Z,24.20
2023-02-06T08:35:01.977Z,24.35
2023-02-06T08:36:06.187Z,15.25
2023-02-06T08:37:09.302Z,13.02
2023-02-06T08:38:12.434Z,14.73
2023-02-06T08:39:16.147Z,20.63
2023-02-06T08:40:19.627Z,18.20
2023-02-06T08:41:27.796Z,11.63
2023-02-06T08:42:31.055Z,25.17
2023-02-06T08:43:34.287Z,17.85
2023-02-06T08:44:37.756Z,22.30
2023-02-06T08:45:40.995Z,11.27
2023-02-06T08:46:45.916Z,17.52
2023-02-06T08:47:48.684Z,15.35
2023-02-06T08:48:59.720Z,18.65
2023-02-06T08:50:03.734Z,24.63
2023-02-06T08:51:08.963Z,32.78
2023-02-06T08:52:11.845Z,15.77
2023-02-06T08:53:14.731Z,21.08
2023-02-06T08:54:19.648Z,41.85
2023-02-06T08:55:25.149Z,14.38
2023-02-06T08:56:29.064Z,13.75
2023-02-06T08:57:31.585Z,25.45
2023-02-06T08:58:34.586Z,41.92
2023-02-06T08:59:37.104Z,32.35
2023-02-06T09:00:39.629Z,23.58
2023-02-06T09:01:45.467Z,28.33
2023-02-06T09:02:48.161Z,44.80
2023-02-06T09:03:54.386Z,28.13
2023-02-06T09:04:56.921Z,46.50
2023-02-06T09:06:09.749Z,40.72
2023-02-06T09:07:12.993Z,62.85
2023-02-06T09:08:16.236Z,36.83
2023-02-06T09:09:19.115Z,31.90
2023-02-06T09:10:27.358Z,44.75
2023-02-06T09:11:30.480Z,45.53
2023-02-06T09:12:33.034Z,35.80
2023-02-06T09:13:36.121Z,37.42
2023-02-06T09:14:39.001Z,33.60
2023-02-06T09:15:43.307Z,26.92
2023-02-06T09:16:46.238Z,42.50
2023-02-06T09:17:49.120Z,57.72
2023-02-06T09:18:54.188Z,37.30
2023-02-06T09:19:57.037Z,37.25
2023-02-06T09:21:11.918Z,56.83
2023-02-06T09:22:14.317Z,28.35
2023-02-06T09:23:18.161Z,27.20
2023-02-06T09:24:21.137Z,34.55
2023-02-06T09:25:23.677Z,26.75
2023-02-06T09:26:29.179Z,33.40
2023-02-06T09:27:31.723Z,44.55
2023-02-06T09:28:34.362Z,40.35
2023-02-06T09:29:36.888Z,35.75
2023-02-06T09:30:39.416Z,41.45
2023-02-06T09:31:43.163Z,30.73
2023-02-06T09:32:45.645Z,55.10
2023-02-06T09:33:48.175Z,43.47
2023-02-06T09:34:50.810Z,36.55
2023-02-06T09:36:14.103Z,39.65
2023-02-06T09:37:16.856Z,34.67
2023-02-06T09:38:19.365Z,33.30
2023-02-06T09:39:22.042Z,42.25
2023-02-06T09:40:28.129Z,55.72
2023-02-06T09:41:46.404Z,34.35
2023-02-06T09:42:49.010Z,33.28
2023-02-06T09:44:13.488Z,32.60
2023-02-06T09:45:20.698Z,54.53
2023-02-06T09:46:28.628Z,34.83
2023-02-06T09:47:34.742Z,29.52
2023-02-06T09:48:39.537Z,21.15
2023-02-06T09:49:50.210Z,14.32
2023-02-06T09:51:23.627Z,30.65
2023-02-06T09:52:46.977Z,26.05
2023-02-06T09:53:49.499Z,32.63
2023-02-06T09:55:23.459Z,19.13
2023-02-06T09:56:25.871Z,18.20
2023-02-06T09:57:31.507Z,34.42
2023-02-06T09:58:47.235Z,28.55
2023-02-06T10:00:03.080Z,25.98
2023-02-06T10:01:31.677Z,26.88
2023-02-06T10:02:58.883Z,21.33
2023-02-06T10:04:40.519Z,38.28
2023-02-06T10:06:04.878Z,36.17
2023-02-06T10:07:19.042Z,32.58
2023-02-06T10:08:26.730Z,16.90
2023-02-06T10:09:56.606Z,19.10
2023-02-06T10:11:05.729Z,28.92
2023-02-06T10:12:46.410Z,28.35
2023-02-06T10:13:57.350Z,33.70
2023-02-06T10:15:07.657Z,29.20
2023-02-06T10:16:26.289Z,22.73
2023-02-06T10:17:36.700Z,30.02
2023-02-06T10:18:46.779Z,25.60
2023-02-06T10:19:58.545Z,23.52
2023-02-06T10:21:13.065Z,47.40
2023-02-06T10:22:21.475Z,38.13
2023-02-06T10:23:34.676Z,19.73
2023-02-06T10:24:46.909Z,21.35
2023-02-06T10:26:17.512Z,28.65
2023-02-06T10:27:21.235Z,27.33
2023-02-06T10:28:28.078Z,26.88
2023-02-06T10:29:33.478Z,26.88
2023-02-06T10:31:30.079Z,32.10
2023-02-06T10:32:43.813Z,29.70
2023-02-06T10:34:07.329Z,22.95
2023-02-06T10:35:35.234Z,26.42
2023-02-06T10:37:00.385Z,24.55
2023-02-06T10:38:34.462Z,19.85
2023-02-06T10:39:52.345Z,26.38
2023-02-06T10:41:19.222Z,26.70
2023-02-06T10:42:59.191Z,21.75
2023-02-06T10:44:07.471Z,22.98
2023-02-06T10:45:28.476Z,19.95
2023-02-06T10:48:18.636Z,24.58
2023-02-06T10:49:52.960Z,16.85
2023-02-06T10:51:16.725Z,30.25
2023-02-06T10:52:33.525Z,19.40
2023-02-06T10:53:49.844Z,29.02
2023-02-06T10:54:59.568Z,25.67
2023-02-06T10:56:10.250Z,23.45
2023-02-06T10:57:19.974Z,17.27
2023-02-06T10:58:28.906Z,25.67
2023-02-06T10:59:39.707Z,31.48
2023-02-06T11:00:46.084Z,27.25
2023-02-06T11:01:56.153Z,18.25
2023-02-06T11:03:07.411Z,18.10
2023-02-06T11:04:32.869Z,22.20
2023-02-06T11:05:36.813Z,20.30
2023-02-06T11:06:42.717Z,15.48
2023-02-06T11:07:53.994Z,23.10
2023-02-06T11:08:56.632Z,18.52
2023-02-06T11:09:59.874Z,18.52
2023-02-06T11:11:19.707Z,20.17
2023-02-06T11:12:29.513Z,25.48
2023-02-06T11:13:36.480Z,30.50
2023-02-06T11:14:40.915Z,26.30
2023-02-06T11:16:01.614Z,17.77
2023-02-06T11:17:04.562Z,15.75
2023-02-06T11:18:10.693Z,21.30
2023-02-06T11:19:20.408Z,18.83
2023-02-06T11:20:26.760Z,18.38
2023-02-06T11:22:09.810Z,17.95
2023-02-06T11:23:21.004Z,25.58
2023-02-06T11:24:25.445Z,28.67
2023-02-06T11:25:31.545Z,21.55
2023-02-06T11:26:34.189Z,15.65
2023-02-06T11:27:36.856Z,27.10
2023-02-06T11:28:52.955Z,18.55
2023-02-06T11:29:55.805Z,20.38
2023-02-06T11:31:01.705Z,22.42
2023-02-06T11:32:24.737Z,17.02
2023-02-06T11:33:49.686Z,25.27
2023-02-06T11:34:59.542Z,26.52
2023-02-06T11:36:04.821Z,16.30
2023-02-06T11:37:38.299Z,23.50
2023-02-06T11:38:54.853Z,23.55
2023-02-06T11:40:17.058Z,26.33
2023-02-06T11:41:19.703Z,21.45
2023-02-06T11:42:24.875Z,21.70
2023-02-06T11:43:31.821Z,23.02
2023-02-06T11:44:41.181Z,23.48
2023-02-06T11:45:44.606Z,22.60
2023-02-06T11:46:47.175Z,21.90
2023-02-06T11:47:50.061Z,15.55
2023-02-06T11:48:59.670Z,15.68
2023-02-06T11:50:14.065Z,21.23
2023-02-06T11:51:17.060Z,20.33
2023-02-06T11:52:34.232Z,26.08
2023-02-06T11:53:38.397Z,24.52
2023-02-06T11:54:40.945Z,28.50
2023-02-06T11:55:44.665Z,17.70
2023-02-06T11:56:59.067Z,25.48
2023-02-06T11:58:23.078Z,17.10
2023-02-06T11:59:27.270Z,16.92
2023-02-06T12:00:31.008Z,25.95
2023-02-06T12:01:42.808Z,21.02
2023-02-06T12:02:52.121Z,22.35
2023-02-06T12:03:58.959Z,18.83
2023-02-06T12:05:13.359Z,16.33
2023-02-06T12:06:22.021Z,19.17
2023-02-06T12:07:52.388Z,16.27
2023-02-06T12:08:58.489Z,12.45
2023-02-06T12:10:03.906Z,17.73
2023-02-06T12:11:14.335Z,17.23
2023-02-06T12:12:28.377Z,11.32
2023-02-06T12:13:37.733Z,14.52
2023-02-06T12:14:45.420Z,15.40
2023-02-06T12:15:53.538Z,10.05
2023-02-06T12:16:58.980Z,18.13
2023-02-06T12:18:10.044Z,29.13
2023-02-06T12:19:19.868Z,13.20
2023-02-06T12:20:30.307Z,15.27
2023-02-06T12:21:44.993Z,17.85
2023-02-06T12:22:54.193Z,15.52
2023-02-06T12:24:05.233Z,13.98
2023-02-06T12:25:25.754Z,14.75
2023-02-06T12:26:34.039Z,14.35
2023-02-06T12:27:39.759Z,13.63
2023-02-06T12:28:52.759Z,18.48
2023-02-06T12:30:06.808Z,11.65
2023-02-06T12:31:45.918Z,20.83
2023-02-06T12:32:54.445Z,11.27
2023-02-06T12:34:10.291Z,19.20
2023-02-06T12:35:16.415Z,20.73
2023-02-06T12:36:22.648Z,13.02
2023-02-06T12:37:31.911Z,21.83
2023-02-06T12:38:50.372Z,13.90
2023-02-06T12:39:53.617Z,17.40
2023-02-06T12:41:03.094Z,22.70
2023-02-06T12:42:32.521Z,15.85
2023-02-06T12:43:38.523Z,11.80
2023-02-06T12:44:49.420Z,12.27
2023-02-06T12:47:10.663Z,8.68
2023-02-06T12:48:26.031Z,14.68
2023-02-06T12:49:54.471Z,12.75
2023-02-06T12:51:06.354Z,16.98
2023-02-06T12:52:41.757Z,14.02
2023-02-06T12:53:57.601Z,17.33
2023-02-06T12:55:42.836Z,19.90
2023-02-06T12:56:48.244Z,11.98
2023-02-06T12:57:51.365Z,21.70
2023-02-06T12:59:20.162Z,9.40
2023-02-06T13:00:47.296Z,14.48
2023-02-06T13:02:32.828Z,23.13
2023-02-06T13:03:43.211Z,18.23
2023-02-06T13:04:47.342Z,15.20
2023-02-06T13:05:54.995Z,15.43
2023-02-06T13:07:08.178Z,20.85
2023-02-06T13:08:26.539Z,19.05
2023-02-06T13:09:33.794Z,10.73
2023-02-06T13:10:37.721Z,20.00
2023-02-06T13:11:42.675Z,14.52
2023-02-06T13:12:57.562Z,19.20
2023-02-06T13:14:07.014Z,16.00
2023-02-06T13:15:22.875Z,13.27
2023-02-06T13:16:38.598Z,15.43
2023-02-06T13:17:42.883Z,13.20
2023-02-06T13:18:50.593Z,12.85
2023-02-06T13:20:12.198Z,16.35
2023-02-06T13:21:28.851Z,15.90
2023-02-06T13:22:42.202Z,13.35
2023-02-06T13:24:03.202Z,15.05
2023-02-06T13:25:30.196Z,18.95
2023-02-06T13:26:56.453Z,14.75
2023-02-06T13:28:01.367Z,13.88
2023-02-06T13:29:04.177Z,15.85
2023-02-06T13:30:31.829Z,13.90
2023-02-06T13:31:35.565Z,13.20
2023-02-06T13:32:43.185Z,20.55
2023-02-06T13:34:01.769Z,14.82
2023-02-06T13:35:19.772Z,18.33
2023-02-06T13:36:40.547Z,15.50
2023-02-06T13:37:48.405Z,12.95
2023-02-06T13:38:56.249Z,16.13
2023-02-06T13:40:23.785Z,13.32
2023-02-06T13:41:34.660Z,12.95
2023-02-06T13:44:19.175Z,14.00
2023-02-06T13:45:29.375Z,17.40
2023-02-06T13:47:10.056Z,15.77
2023-02-06T13:48:25.056Z,17.00
2023-02-06T13:49:36.824Z,9.75
2023-02-06T13:50:51.696Z,12.20
2023-02-06T13:51:57.230Z,14.40
2023-02-06T13:53:11.525Z,13.43
2023-02-06T13:54:26.021Z,16.63
2023-02-06T13:56:25.431Z,13.65
2023-02-06T13:57:49.664Z,12.82
2023-02-06T13:58:54.949Z,21.40
2023-02-06T14:00:00.349Z,13.27
2023-02-06T14:01:10.437Z,14.57
2023-02-06T14:02:22.699Z,11.10
2023-02-06T14:03:34.194Z,12.27
2023-02-06T14:04:38.039Z,14.25
2023-02-06T14:06:00.723Z,18.60
2023-02-06T14:07:30.721Z,16.77
2023-02-06T14:08:57.605Z,11.85
2023-02-06T14:10:15.131Z,15.73
2023-02-06T14:11:32.302Z,16.27
2023-02-06T14:13:07.211Z,10.02
2023-02-06T14:14:18.731Z,11.13
2023-02-06T14:15:30.074Z,12.95
2023-02-06T14:16:49.931Z,14.20
2023-02-06T14:17:58.228Z,15.13
2023-02-06T14:19:31.593Z,16.60
2023-02-06T14:21:08.540Z,14.23
2023-02-06T14:22:19.227Z,15.43
2023-02-06T14:23:27.987Z,14.95
2023-02-06T14:24:48.985Z,26.52
2023-02-06T14:26:21.389Z,9.07
2023-02-06T14:27:33.649Z,15.90
2023-02-06T14:29:07.830Z,16.88
2023-02-06T14:30:35.570Z,20.25
2023-02-06T14:32:04.595Z,19.10
2023-02-06T14:33:33.161Z,12.70
2023-02-06T14:35:02.920Z,9.65
2023-02-06T14:36:53.804Z,17.33
2023-02-06T14:38:20.804Z,17.02
2023-02-06T14:39:44.925Z,15.43
2023-02-06T14:40:52.372Z,16.13
2023-02-06T14:41:55.746Z,15.55
2023-02-06T14:43:03.537Z,14.85
2023-02-06T14:44:14.528Z,17.70
2023-02-06T14:45:42.932Z,14.55
2023-02-06T14:46:47.245Z,14.68
2023-02-06T14:47:51.900Z,13.18
2023-02-06T14:48:59.843Z,16.45
2023-02-06T14:50:03.064Z,17.13
2023-02-06T14:51:08.597Z,11.88